sensor_id;sensor_type;location;lat;lon;timestamp;P1;durP1;ratioP1;P2;durP2;ratioP2
45208;SDS011;30951;43.994;26.260;2023-04-24T00:00:57;12.63;;;7.40;;
45208;SDS011;30951;43.994;26.260;2023-04-24T00:03:23;16.27;;;7.80;;
45208;SDS011;30951;43.994;26.260;2023-04-24T00:05:49;12.93;;;6.78;;
45208;SDS011;30951;43.994;26.260;2023-04-24T00:08:16;10.15;;;7.20;;
45208;SDS011;30951;43.994;26.260;2023-04-24T00:10:42;11.57;;;6.90;;
45208;SDS011;30951;43.994;26.260;2023-04-24T00:13:07;16.85;;;7.40;;
45208;SDS011;30951;43.994;26.260;2023-04-24T00:15:33;9.80;;;7.22;;
45208;SDS011;30951;43.994;26.260;2023-04-24T00:17:58;19.67;;;7.93;;
45208;SDS011;30951;43.994;26.260;2023-04-24T00:20:24;12.75;;;7.60;;
45208;SDS011;30951;43.994;26.260;2023-04-24T00:22:49;11.40;;;7.22;;
45208;SDS011;30951;43.994;26.260;2023-04-24T00:25:15;15.85;;;7.63;;
45208;SDS011;30951;43.994;26.260;2023-04-24T00:27:40;16.50;;;7.47;;
45208;SDS011;30951;43.994;26.260;2023-04-24T00:30:06;12.10;;;8.10;;
45208;SDS011;30951;43.994;26.260;2023-04-24T00:32:32;14.32;;;7.55;;
45208;SDS011;30951;43.994;26.260;2023-04-24T00:34:57;15.57;;;8.25;;
45208;SDS011;30951;43.994;26.260;2023-04-24T00:37:23;11.52;;;8.00;;
45208;SDS011;30951;43.994;26.260;2023-04-24T00:39:48;12.52;;;8.15;;
45208;SDS011;30951;43.994;26.260;2023-04-24T00:42:14;15.20;;;7.93;;
45208;SDS011;30951;43.994;26.260;2023-04-24T00:44:39;19.05;;;8.60;;
45208;SDS011;30951;43.994;26.260;2023-04-24T00:47:05;13.13;;;7.85;;
45208;SDS011;30951;43.994;26.260;2023-04-24T00:49:30;13.95;;;8.32;;
45208;SDS011;30951;43.994;26.260;2023-04-24T00:51:56;16.85;;;8.10;;
45208;SDS011;30951;43.994;26.260;2023-04-24T00:54:24;12.23;;;9.02;;
45208;SDS011;30951;43.994;26.260;2023-04-24T00:56:50;16.15;;;7.40;;
45208;SDS011;30951;43.994;26.260;2023-04-24T00:59:17;13.05;;;8.82;;
45208;SDS011;30951;43.994;26.260;2023-04-24T01:01:43;16.20;;;8.10;;
45208;SDS011;30951;43.994;26.260;2023-04-24T01:04:09;9.13;;;7.18;;
45208;SDS011;30951;43.994;26.260;2023-04-24T01:06:35;13.73;;;8.18;;
45208;SDS011;30951;43.994;26.260;2023-04-24T01:09:04;14.25;;;7.78;;
45208;SDS011;30951;43.994;26.260;2023-04-24T01:11:30;12.80;;;7.57;;
45208;SDS011;30951;43.994;26.260;2023-04-24T01:13:55;14.20;;;7.97;;
45208;SDS011;30951;43.994;26.260;2023-04-24T01:16:21;10.63;;;7.53;;
45208;SDS011;30951;43.994;26.260;2023-04-24T01:18:47;16.05;;;9.13;;
45208;SDS011;30951;43.994;26.260;2023-04-24T01:21:13;19.42;;;8.63;;
45208;SDS011;30951;43.994;26.260;2023-04-24T01:23:42;16.98;;;7.47;;
45208;SDS011;30951;43.994;26.260;2023-04-24T01:26:08;12.23;;;7.43;;
45208;SDS011;30951;43.994;26.260;2023-04-24T01:28:34;14.30;;;8.38;;
45208;SDS011;30951;43.994;26.260;2023-04-24T01:30:59;14.35;;;8.80;;
45208;SDS011;30951;43.994;26.260;2023-04-24T01:33:25;16.73;;;7.97;;
45208;SDS011;30951;43.994;26.260;2023-04-24T01:35:50;15.82;;;8.05;;
45208;SDS011;30951;43.994;26.260;2023-04-24T01:38:16;13.25;;;7.70;;
45208;SDS011;30951;43.994;26.260;2023-04-24T01:40:41;10.68;;;7.78;;
45208;SDS011;30951;43.994;26.260;2023-04-24T01:43:07;14.52;;;7.72;;
45208;SDS011;30951;43.994;26.260;2023-04-24T01:45:32;16.92;;;8.45;;
45208;SDS011;30951;43.994;26.260;2023-04-24T01:47:58;16.15;;;7.32;;
45208;SDS011;30951;43.994;26.260;2023-04-24T01:50:24;13.50;;;7.65;;
45208;SDS011;30951;43.994;26.260;2023-04-24T01:52:49;10.25;;;7.75;;
45208;SDS011;30951;43.994;26.260;2023-04-24T01:55:16;13.05;;;7.75;;
45208;SDS011;30951;43.994;26.260;2023-04-24T01:57:41;15.32;;;8.18;;
45208;SDS011;30951;43.994;26.260;2023-04-24T02:00:07;12.55;;;7.63;;
45208;SDS011;30951;43.994;26.260;2023-04-24T02:02:33;15.90;;;7.05;;
45208;SDS011;30951;43.994;26.260;2023-04-24T02:04:59;13.50;;;7.13;;
45208;SDS011;30951;43.994;26.260;2023-04-24T02:07:24;16.25;;;7.47;;
45208;SDS011;30951;43.994;26.260;2023-04-24T02:09:50;12.38;;;6.90;;
45208;SDS011;30951;43.994;26.260;2023-04-24T02:12:15;14.68;;;8.45;;
45208;SDS011;30951;43.994;26.260;2023-04-24T02:14:42;12.00;;;8.02;;
45208;SDS011;30951;43.994;26.260;2023-04-24T02:17:08;20.98;;;8.90;;
45208;SDS011;30951;43.994;26.260;2023-04-24T02:19:33;15.80;;;9.23;;
45208;SDS011;30951;43.994;26.260;2023-04-24T02:21:59;13.15;;;7.22;;
45208;SDS011;30951;43.994;26.260;2023-04-24T02:24:24;13.45;;;7.90;;
45208;SDS011;30951;43.994;26.260;2023-04-24T02:26:50;16.80;;;8.63;;
45208;SDS011;30951;43.994;26.260;2023-04-24T02:29:15;9.90;;;8.02;;
45208;SDS011;30951;43.994;26.260;2023-04-24T02:31:41;14.27;;;7.82;;
45208;SDS011;30951;43.994;26.260;2023-04-24T02:34:06;10.88;;;9.38;;
45208;SDS011;30951;43.994;26.260;2023-04-24T02:36:32;15.32;;;9.30;;
45208;SDS011;30951;43.994;26.260;2023-04-24T02:38:57;20.27;;;10.05;;
45208;SDS011;30951;43.994;26.260;2023-04-24T02:41:23;15.27;;;9.40;;
45208;SDS011;30951;43.994;26.260;2023-04-24T02:43:48;20.13;;;10.70;;
45208;SDS011;30951;43.994;26.260;2023-04-24T02:46:14;20.92;;;8.80;;
45208;SDS011;30951;43.994;26.260;2023-04-24T02:48:39;13.32;;;9.05;;
45208;SDS011;30951;43.994;26.260;2023-04-24T02:51:05;23.63;;;10.82;;
45208;SDS011;30951;43.994;26.260;2023-04-24T02:53:31;19.60;;;10.30;;
45208;SDS011;30951;43.994;26.260;2023-04-24T02:55:57;14.35;;;10.43;;
45208;SDS011;30951;43.994;26.260;2023-04-24T02:58:23;14.02;;;10.60;;
45208;SDS011;30951;43.994;26.260;2023-04-24T03:00:48;16.13;;;10.25;;
45208;SDS011;30951;43.994;26.260;2023-04-24T03:03:14;17.33;;;9.40;;
45208;SDS011;30951;43.994;26.260;2023-04-24T03:05:40;20.15;;;10.23;;
45208;SDS011;30951;43.994;26.260;2023-04-24T03:08:05;20.23;;;10.68;;
45208;SDS011;30951;43.994;26.260;2023-04-24T03:10:31;23.38;;;12.85;;
45208;SDS011;30951;43.994;26.260;2023-04-24T03:12:57;24.38;;;13.35;;
45208;SDS011;30951;43.994;26.260;2023-04-24T03:15:22;24.67;;;14.23;;
45208;SDS011;30951;43.994;26.260;2023-04-24T03:17:48;21.60;;;12.50;;
45208;SDS011;30951;43.994;26.260;2023-04-24T03:20:13;20.88;;;13.10;;
45208;SDS011;30951;43.994;26.260;2023-04-24T03:22:39;16.63;;;11.63;;
45208;SDS011;30951;43.994;26.260;2023-04-24T03:25:05;24.95;;;11.35;;
45208;SDS011;30951;43.994;26.260;2023-04-24T03:27:31;20.58;;;10.98;;
45208;SDS011;30951;43.994;26.260;2023-04-24T03:29:56;17.23;;;10.57;;
45208;SDS011;30951;43.994;26.260;2023-04-24T03:32:22;18.15;;;9.38;;
45208;SDS011;30951;43.994;26.260;2023-04-24T03:34:48;13.15;;;9.60;;
45208;SDS011;30951;43.994;26.260;2023-04-24T03:37:14;19.38;;;10.18;;
45208;SDS011;30951;43.994;26.260;2023-04-24T03:39:40;16.10;;;9.48;;
45208;SDS011;30951;43.994;26.260;2023-04-24T03:42:05;15.68;;;10.10;;
45208;SDS011;30951;43.994;26.260;2023-04-24T03:44:31;17.83;;;9.93;;
45208;SDS011;30951;43.994;26.260;2023-04-24T03:46:57;21.83;;;9.60;;
45208;SDS011;30951;43.994;26.260;2023-04-24T03:49:23;21.20;;;9.57;;
45208;SDS011;30951;43.994;26.260;2023-04-24T03:51:48;15.00;;;8.88;;
45208;SDS011;30951;43.994;26.260;2023-04-24T03:54:14;23.25;;;8.77;;
45208;SDS011;30951;43.994;26.260;2023-04-24T03:56:39;26.17;;;9.15;;
45208;SDS011;30951;43.994;26.260;2023-04-24T03:59:05;15.82;;;8.68;;
45208;SDS011;30951;43.994;26.260;2023-04-24T04:01:30;21.80;;;10.30;;
45208;SDS011;30951;43.994;26.260;2023-04-24T04:03:56;12.85;;;7.18;;
45208;SDS011;30951;43.994;26.260;2023-04-24T04:06:22;10.27;;;8.45;;
45208;SDS011;30951;43.994;26.260;2023-04-24T04:08:47;15.68;;;7.85;;
45208;SDS011;30951;43.994;26.260;2023-04-24T04:11:12;17.33;;;8.80;;
45208;SDS011;30951;43.994;26.260;2023-04-24T04:13:38;15.80;;;7.45;;
45208;SDS011;30951;43.994;26.260;2023-04-24T04:16:04;20.73;;;7.90;;
45208;SDS011;30951;43.994;26.260;2023-04-24T04:18:29;12.45;;;7.35;;
45208;SDS011;30951;43.994;26.260;2023-04-24T04:20:55;8.18;;;6.38;;
45208;SDS011;30951;43.994;26.260;2023-04-24T04:23:22;19.13;;;7.30;;
45208;SDS011;30951;43.994;26.260;2023-04-24T04:25:47;11.25;;;6.22;;
45208;SDS011;30951;43.994;26.260;2023-04-24T04:28:13;17.65;;;7.72;;
45208;SDS011;30951;43.994;26.260;2023-04-24T04:30:38;11.90;;;6.07;;
45208;SDS011;30951;43.994;26.260;2023-04-24T04:33:05;17.27;;;6.80;;
45208;SDS011;30951;43.994;26.260;2023-04-24T04:35:30;14.60;;;6.00;;
45208;SDS011;30951;43.994;26.260;2023-04-24T04:37:56;8.43;;;5.50;;
45208;SDS011;30951;43.994;26.260;2023-04-24T04:40:24;7.05;;;4.97;;
45208;SDS011;30951;43.994;26.260;2023-04-24T04:42:49;14.93;;;5.43;;
45208;SDS011;30951;43.994;26.260;2023-04-24T04:45:18;8.25;;;5.07;;
45208;SDS011;30951;43.994;26.260;2023-04-24T04:47:44;11.75;;;6.45;;
45208;SDS011;30951;43.994;26.260;2023-04-24T04:50:09;19.63;;;9.07;;
45208;SDS011;30951;43.994;26.260;2023-04-24T04:52:35;20.00;;;11.73;;
45208;SDS011;30951;43.994;26.260;2023-04-24T04:55:01;23.02;;;10.07;;
45208;SDS011;30951;43.994;26.260;2023-04-24T04:57:27;8.95;;;5.20;;
45208;SDS011;30951;43.994;26.260;2023-04-24T04:59:52;6.90;;;5.38;;
45208;SDS011;30951;43.994;26.260;2023-04-24T05:02:18;9.13;;;5.50;;
45208;SDS011;30951;43.994;26.260;2023-04-24T05:04:43;11.35;;;5.55;;
45208;SDS011;30951;43.994;26.260;2023-04-24T05:07:10;9.27;;;5.85;;
45208;SDS011;30951;43.994;26.260;2023-04-24T05:09:36;7.57;;;5.10;;
45208;SDS011;30951;43.994;26.260;2023-04-24T05:12:02;8.48;;;4.63;;
45208;SDS011;30951;43.994;26.260;2023-04-24T05:14:28;8.73;;;4.68;;
45208;SDS011;30951;43.994;26.260;2023-04-24T05:16:53;10.55;;;4.97;;
45208;SDS011;30951;43.994;26.260;2023-04-24T05:19:19;6.70;;;4.55;;
45208;SDS011;30951;43.994;26.260;2023-04-24T05:21:44;5.13;;;4.30;;
45208;SDS011;30951;43.994;26.260;2023-04-24T05:24:10;6.28;;;4.25;;
45208;SDS011;30951;43.994;26.260;2023-04-24T05:26:35;5.82;;;4.05;;
45208;SDS011;30951;43.994;26.260;2023-04-24T05:29:01;12.25;;;4.82;;
45208;SDS011;30951;43.994;26.260;2023-04-24T05:31:27;11.63;;;4.38;;
45208;SDS011;30951;43.994;26.260;2023-04-24T05:33:52;7.72;;;4.13;;
45208;SDS011;30951;43.994;26.260;2023-04-24T05:36:18;6.50;;;4.47;;
45208;SDS011;30951;43.994;26.260;2023-04-24T05:38:43;9.05;;;4.75;;
45208;SDS011;30951;43.994;26.260;2023-04-24T05:41:09;7.05;;;4.47;;
45208;SDS011;30951;43.994;26.260;2023-04-24T05:43:35;12.43;;;4.63;;
45208;SDS011;30951;43.994;26.260;2023-04-24T05:46:00;9.98;;;4.30;;
45208;SDS011;30951;43.994;26.260;2023-04-24T05:48:26;11.40;;;5.15;;
45208;SDS011;30951;43.994;26.260;2023-04-24T05:50:51;9.27;;;4.53;;
45208;SDS011;30951;43.994;26.260;2023-04-24T05:53:17;6.95;;;4.40;;
45208;SDS011;30951;43.994;26.260;2023-04-24T05:55:43;15.43;;;5.13;;
45208;SDS011;30951;43.994;26.260;2023-04-24T05:58:09;12.75;;;3.70;;
45208;SDS011;30951;43.994;26.260;2023-04-24T06:00:34;10.07;;;4.20;;
45208;SDS011;30951;43.994;26.260;2023-04-24T06:03:00;7.10;;;3.65;;
45208;SDS011;30951;43.994;26.260;2023-04-24T06:05:26;6.35;;;3.97;;
45208;SDS011;30951;43.994;26.260;2023-04-24T06:07:51;6.35;;;3.38;;
45208;SDS011;30951;43.994;26.260;2023-04-24T06:10:17;5.20;;;3.78;;
45208;SDS011;30951;43.994;26.260;2023-04-24T06:12:43;8.65;;;3.80;;
45208;SDS011;30951;43.994;26.260;2023-04-24T06:15:08;6.53;;;3.58;;
45208;SDS011;30951;43.994;26.260;2023-04-24T06:17:34;7.28;;;3.50;;
45208;SDS011;30951;43.994;26.260;2023-04-24T06:19:59;7.90;;;3.80;;
45208;SDS011;30951;43.994;26.260;2023-04-24T06:22:25;6.13;;;3.78;;
45208;SDS011;30951;43.994;26.260;2023-04-24T06:24:50;7.40;;;4.10;;
45208;SDS011;30951;43.994;26.260;2023-04-24T06:27:16;8.10;;;3.60;;
45208;SDS011;30951;43.994;26.260;2023-04-24T06:29:41;9.55;;;3.47;;
45208;SDS011;30951;43.994;26.260;2023-04-24T06:32:07;4.45;;;3.00;;
45208;SDS011;30951;43.994;26.260;2023-04-24T06:34:32;4.57;;;3.28;;
45208;SDS011;30951;43.994;26.260;2023-04-24T06:36:59;10.80;;;3.80;;
45208;SDS011;30951;43.994;26.260;2023-04-24T06:39:25;12.55;;;3.28;;
45208;SDS011;30951;43.994;26.260;2023-04-24T06:41:50;8.23;;;3.55;;
45208;SDS011;30951;43.994;26.260;2023-04-24T06:44:16;8.50;;;3.40;;
45208;SDS011;30951;43.994;26.260;2023-04-24T06:46:41;8.65;;;3.30;;
45208;SDS011;30951;43.994;26.260;2023-04-24T06:49:07;6.10;;;3.55;;
45208;SDS011;30951;43.994;26.260;2023-04-24T06:51:32;6.25;;;3.47;;
45208;SDS011;30951;43.994;26.260;2023-04-24T06:53:58;8.07;;;3.42;;
45208;SDS011;30951;43.994;26.260;2023-04-24T06:56:24;6.13;;;3.33;;
45208;SDS011;30951;43.994;26.260;2023-04-24T06:58:50;4.90;;;3.53;;
45208;SDS011;30951;43.994;26.260;2023-04-24T07:01:16;6.18;;;3.55;;
45208;SDS011;30951;43.994;26.260;2023-04-24T07:03:42;9.02;;;4.35;;
45208;SDS011;30951;43.994;26.260;2023-04-24T07:06:08;7.75;;;3.95;;
45208;SDS011;30951;43.994;26.260;2023-04-24T07:08:36;6.88;;;3.72;;
45208;SDS011;30951;43.994;26.260;2023-04-24T07:11:01;5.93;;;3.70;;
45208;SDS011;30951;43.994;26.260;2023-04-24T07:13:27;16.55;;;4.53;;
45208;SDS011;30951;43.994;26.260;2023-04-24T07:15:53;6.22;;;3.53;;
45208;SDS011;30951;43.994;26.260;2023-04-24T07:18:20;7.88;;;3.55;;
45208;SDS011;30951;43.994;26.260;2023-04-24T07:20:46;13.82;;;4.10;;
45208;SDS011;30951;43.994;26.260;2023-04-24T07:23:11;6.70;;;3.97;;
45208;SDS011;30951;43.994;26.260;2023-04-24T07:25:37;9.57;;;3.85;;
45208;SDS011;30951;43.994;26.260;2023-04-24T07:28:03;9.95;;;4.10;;
45208;SDS011;30951;43.994;26.260;2023-04-24T07:30:30;15.02;;;4.38;;
45208;SDS011;30951;43.994;26.260;2023-04-24T07:32:57;11.00;;;3.78;;
45208;SDS011;30951;43.994;26.260;2023-04-24T07:35:23;6.00;;;3.58;;
45208;SDS011;30951;43.994;26.260;2023-04-24T07:37:51;9.48;;;4.03;;
45208;SDS011;30951;43.994;26.260;2023-04-24T07:40:17;6.22;;;3.40;;
45208;SDS011;30951;43.994;26.260;2023-04-24T07:42:43;9.23;;;3.42;;
45208;SDS011;30951;43.994;26.260;2023-04-24T07:45:09;10.02;;;3.50;;
45208;SDS011;30951;43.994;26.260;2023-04-24T07:47:34;8.63;;;3.75;;
45208;SDS011;30951;43.994;26.260;2023-04-24T07:50:02;10.10;;;3.78;;
45208;SDS011;30951;43.994;26.260;2023-04-24T07:52:28;10.35;;;3.50;;
45208;SDS011;30951;43.994;26.260;2023-04-24T07:54:54;7.10;;;3.67;;
45208;SDS011;30951;43.994;26.260;2023-04-24T07:57:24;6.05;;;3.30;;
45208;SDS011;30951;43.994;26.260;2023-04-24T07:59:50;7.00;;;3.70;;
45208;SDS011;30951;43.994;26.260;2023-04-24T08:02:15;7.85;;;3.13;;
45208;SDS011;30951;43.994;26.260;2023-04-24T08:04:41;8.15;;;3.10;;
45208;SDS011;30951;43.994;26.260;2023-04-24T08:07:06;6.57;;;3.45;;
45208;SDS011;30951;43.994;26.260;2023-04-24T08:09:32;6.40;;;3.30;;
45208;SDS011;30951;43.994;26.260;2023-04-24T08:11:58;6.82;;;3.42;;
45208;SDS011;30951;43.994;26.260;2023-04-24T08:14:23;5.47;;;2.67;;
45208;SDS011;30951;43.994;26.260;2023-04-24T08:16:49;10.25;;;3.20;;
45208;SDS011;30951;43.994;26.260;2023-04-24T08:19:15;7.60;;;3.00;;
45208;SDS011;30951;43.994;26.260;2023-04-24T08:21:40;12.00;;;3.22;;
45208;SDS011;30951;43.994;26.260;2023-04-24T08:24:06;8.60;;;3.28;;
45208;SDS011;30951;43.994;26.260;2023-04-24T08:26:33;5.45;;;2.90;;
45208;SDS011;30951;43.994;26.260;2023-04-24T08:28:58;5.60;;;3.10;;
45208;SDS011;30951;43.994;26.260;2023-04-24T08:31:24;7.72;;;2.92;;
45208;SDS011;30951;43.994;26.260;2023-04-24T08:33:50;6.63;;;3.08;;
45208;SDS011;30951;43.994;26.260;2023-04-24T08:36:15;4.10;;;2.85;;
45208;SDS011;30951;43.994;26.260;2023-04-24T08:38:41;6.45;;;2.95;;
45208;SDS011;30951;43.994;26.260;2023-04-24T08:41:07;5.32;;;2.95;;
45208;SDS011;30951;43.994;26.260;2023-04-24T08:43:34;4.63;;;2.67;;
45208;SDS011;30951;43.994;26.260;2023-04-24T08:46:01;8.82;;;2.53;;
45208;SDS011;30951;43.994;26.260;2023-04-24T08:48:28;4.97;;;2.55;;
45208;SDS011;30951;43.994;26.260;2023-04-24T08:50:54;6.03;;;2.42;;
45208;SDS011;30951;43.994;26.260;2023-04-24T08:53:20;8.13;;;2.75;;
45208;SDS011;30951;43.994;26.260;2023-04-24T08:55:46;8.32;;;3.05;;
45208;SDS011;30951;43.994;26.260;2023-04-24T08:58:13;5.95;;;2.80;;
45208;SDS011;30951;43.994;26.260;2023-04-24T09:00:39;5.32;;;2.45;;
45208;SDS011;30951;43.994;26.260;2023-04-24T09:03:05;10.70;;;2.67;;
45208;SDS011;30951;43.994;26.260;2023-04-24T09:05:31;7.18;;;2.90;;
45208;SDS011;30951;43.994;26.260;2023-04-24T09:07:57;5.03;;;2.60;;
45208;SDS011;30951;43.994;26.260;2023-04-24T09:10:25;5.75;;;3.30;;
45208;SDS011;30951;43.994;26.260;2023-04-24T09:12:51;5.68;;;2.42;;
45208;SDS011;30951;43.994;26.260;2023-04-24T09:15:18;6.65;;;2.53;;
45208;SDS011;30951;43.994;26.260;2023-04-24T09:17:45;11.32;;;2.97;;
45208;SDS011;30951;43.994;26.260;2023-04-24T09:20:11;5.05;;;2.22;;
45208;SDS011;30951;43.994;26.260;2023-04-24T09:22:36;16.85;;;3.20;;
45208;SDS011;30951;43.994;26.260;2023-04-24T09:25:06;10.48;;;2.60;;
45208;SDS011;30951;43.994;26.260;2023-04-24T09:27:33;6.43;;;2.40;;
45208;SDS011;30951;43.994;26.260;2023-04-24T09:29:59;5.82;;;1.88;;
45208;SDS011;30951;43.994;26.260;2023-04-24T09:32:25;5.85;;;2.83;;
45208;SDS011;30951;43.994;26.260;2023-04-24T09:37:46;7.45;;;2.42;;
45208;SDS011;30951;43.994;26.260;2023-04-24T09:40:17;8.52;;;2.30;;
45208;SDS011;30951;43.994;26.260;2023-04-24T09:42:44;7.72;;;2.40;;
45208;SDS011;30951;43.994;26.260;2023-04-24T09:45:20;10.75;;;2.47;;
45208;SDS011;30951;43.994;26.260;2023-04-24T09:47:46;8.20;;;2.50;;
45208;SDS011;30951;43.994;26.260;2023-04-24T09:50:16;7.60;;;2.78;;
45208;SDS011;30951;43.994;26.260;2023-04-24T09:52:43;11.70;;;2.90;;
45208;SDS011;30951;43.994;26.260;2023-04-24T09:55:20;8.23;;;2.47;;
45208;SDS011;30951;43.994;26.260;2023-04-24T09:57:49;8.95;;;2.55;;
45208;SDS011;30951;43.994;26.260;2023-04-24T10:00:22;3.53;;;2.40;;
45208;SDS011;30951;43.994;26.260;2023-04-24T10:02:55;3.70;;;1.90;;
45208;SDS011;30951;43.994;26.260;2023-04-24T10:05:29;2.53;;;2.20;;
45208;SDS011;30951;43.994;26.260;2023-04-24T10:07:57;3.92;;;2.28;;
45208;SDS011;30951;43.994;26.260;2023-04-24T10:10:33;6.72;;;2.75;;
45208;SDS011;30951;43.994;26.260;2023-04-24T10:13:01;11.25;;;5.68;;
45208;SDS011;30951;43.994;26.260;2023-04-24T10:15:27;10.85;;;3.35;;
45208;SDS011;30951;43.994;26.260;2023-04-24T10:17:53;8.40;;;3.33;;
45208;SDS011;30951;43.994;26.260;2023-04-24T10:20:22;7.65;;;2.45;;
45208;SDS011;30951;43.994;26.260;2023-04-24T10:22:49;6.30;;;2.38;;
45208;SDS011;30951;43.994;26.260;2023-04-24T10:25:22;12.63;;;3.75;;
45208;SDS011;30951;43.994;26.260;2023-04-24T10:27:50;19.00;;;4.78;;
45208;SDS011;30951;43.994;26.260;2023-04-24T10:30:17;7.95;;;2.55;;
45208;SDS011;30951;43.994;26.260;2023-04-24T10:32:43;9.75;;;2.40;;
45208;SDS011;30951;43.994;26.260;2023-04-24T10:35:10;4.60;;;2.10;;
45208;SDS011;30951;43.994;26.260;2023-04-24T10:37:40;6.22;;;2.50;;
45208;SDS011;30951;43.994;26.260;2023-04-24T10:40:07;5.78;;;2.38;;
45208;SDS011;30951;43.994;26.260;2023-04-24T10:42:35;4.88;;;2.22;;
45208;SDS011;30951;43.994;26.260;2023-04-24T10:45:22;5.28;;;2.35;;
45208;SDS011;30951;43.994;26.260;2023-04-24T10:47:57;12.00;;;4.63;;
45208;SDS011;30951;43.994;26.260;2023-04-24T10:50:29;6.68;;;2.67;;
45208;SDS011;30951;43.994;26.260;2023-04-24T10:53:07;3.78;;;2.13;;
45208;SDS011;30951;43.994;26.260;2023-04-24T10:55:46;8.25;;;2.47;;
45208;SDS011;30951;43.994;26.260;2023-04-24T10:58:14;6.05;;;2.75;;
45208;SDS011;30951;43.994;26.260;2023-04-24T11:00:42;5.40;;;2.10;;
45208;SDS011;30951;43.994;26.260;2023-04-24T11:03:23;4.32;;;2.60;;
45208;SDS011;30951;43.994;26.260;2023-04-24T11:05:55;6.95;;;3.05;;
45208;SDS011;30951;43.994;26.260;2023-04-24T11:08:43;9.68;;;2.85;;
45208;SDS011;30951;43.994;26.260;2023-04-24T11:11:14;5.45;;;2.38;;
45208;SDS011;30951;43.994;26.260;2023-04-24T11:16:39;10.65;;;2.83;;
45208;SDS011;30951;43.994;26.260;2023-04-24T11:21:42;6.88;;;2.90;;
45208;SDS011;30951;43.994;26.260;2023-04-24T11:24:25;7.20;;;2.30;;
45208;SDS011;30951;43.994;26.260;2023-04-24T11:27:15;4.22;;;2.35;;
45208;SDS011;30951;43.994;26.260;2023-04-24T11:32:24;6.10;;;2.05;;
45208;SDS011;30951;43.994;26.260;2023-04-24T11:37:22;4.57;;;1.90;;
45208;SDS011;30951;43.994;26.260;2023-04-24T11:39:53;4.95;;;2.08;;
45208;SDS011;30951;43.994;26.260;2023-04-24T11:42:22;8.10;;;2.53;;
45208;SDS011;30951;43.994;26.260;2023-04-24T11:44:49;5.53;;;2.13;;
45208;SDS011;30951;43.994;26.260;2023-04-24T11:47:16;3.00;;;1.88;;
45208;SDS011;30951;43.994;26.260;2023-04-24T11:49:42;6.95;;;2.40;;
45208;SDS011;30951;43.994;26.260;2023-04-24T11:52:07;7.88;;;2.10;;
45208;SDS011;30951;43.994;26.260;2023-04-24T11:54:33;4.05;;;2.03;;
45208;SDS011;30951;43.994;26.260;2023-04-24T11:56:58;3.55;;;1.85;;
45208;SDS011;30951;43.994;26.260;2023-04-24T11:59:24;5.93;;;2.13;;
45208;SDS011;30951;43.994;26.260;2023-04-24T12:01:50;3.42;;;1.75;;
45208;SDS011;30951;43.994;26.260;2023-04-24T12:04:16;8.40;;;3.33;;
45208;SDS011;30951;43.994;26.260;2023-04-24T12:06:58;3.90;;;2.08;;
45208;SDS011;30951;43.994;26.260;2023-04-24T12:09:25;3.90;;;1.90;;
45208;SDS011;30951;43.994;26.260;2023-04-24T12:11:56;4.20;;;1.98;;
45208;SDS011;30951;43.994;26.260;2023-04-24T12:14:24;8.52;;;2.63;;
45208;SDS011;30951;43.994;26.260;2023-04-24T12:16:50;3.70;;;1.80;;
45208;SDS011;30951;43.994;26.260;2023-04-24T12:19:22;3.90;;;2.10;;
45208;SDS011;30951;43.994;26.260;2023-04-24T12:21:59;4.68;;;2.05;;
45208;SDS011;30951;43.994;26.260;2023-04-24T12:24:25;4.50;;;1.65;;
45208;SDS011;30951;43.994;26.260;2023-04-24T12:26:51;7.78;;;2.30;;
45208;SDS011;30951;43.994;26.260;2023-04-24T12:29:20;10.18;;;2.17;;
45208;SDS011;30951;43.994;26.260;2023-04-24T12:31:46;9.02;;;2.10;;
45208;SDS011;30951;43.994;26.260;2023-04-24T12:34:21;4.03;;;2.05;;
45208;SDS011;30951;43.994;26.260;2023-04-24T12:36:47;3.15;;;1.70;;
45208;SDS011;30951;43.994;26.260;2023-04-24T12:39:19;12.18;;;2.58;;
45208;SDS011;30951;43.994;26.260;2023-04-24T12:44:28;5.22;;;2.00;;
45208;SDS011;30951;43.994;26.260;2023-04-24T12:46:54;6.82;;;1.88;;
45208;SDS011;30951;43.994;26.260;2023-04-24T12:49:20;4.93;;;2.03;;
45208;SDS011;30951;43.994;26.260;2023-04-24T12:51:45;6.60;;;2.30;;
45208;SDS011;30951;43.994;26.260;2023-04-24T12:54:11;7.10;;;2.45;;
45208;SDS011;30951;43.994;26.260;2023-04-24T12:56:36;3.00;;;2.47;;
45208;SDS011;30951;43.994;26.260;2023-04-24T12:59:04;8.07;;;1.92;;
45208;SDS011;30951;43.994;26.260;2023-04-24T13:01:30;5.07;;;2.22;;
45208;SDS011;30951;43.994;26.260;2023-04-24T13:03:56;4.07;;;2.28;;
45208;SDS011;30951;43.994;26.260;2023-04-24T13:06:21;5.93;;;2.13;;
45208;SDS011;30951;43.994;26.260;2023-04-24T13:08:46;5.15;;;2.17;;
45208;SDS011;30951;43.994;26.260;2023-04-24T13:11:13;3.47;;;1.83;;
45208;SDS011;30951;43.994;26.260;2023-04-24T13:13:39;2.67;;;1.80;;
45208;SDS011;30951;43.994;26.260;2023-04-24T13:16:05;8.70;;;2.08;;
45208;SDS011;30951;43.994;26.260;2023-04-24T13:18:30;5.93;;;2.17;;
45208;SDS011;30951;43.994;26.260;2023-04-24T13:20:56;4.78;;;2.22;;
45208;SDS011;30951;43.994;26.260;2023-04-24T13:23:21;4.43;;;2.33;;
45208;SDS011;30951;43.994;26.260;2023-04-24T13:25:48;3.67;;;2.05;;
45208;SDS011;30951;43.994;26.260;2023-04-24T13:28:13;7.22;;;1.80;;
45208;SDS011;30951;43.994;26.260;2023-04-24T13:30:38;11.32;;;2.58;;
45208;SDS011;30951;43.994;26.260;2023-04-24T13:33:04;2.60;;;1.98;;
45208;SDS011;30951;43.994;26.260;2023-04-24T13:35:30;6.35;;;2.00;;
45208;SDS011;30951;43.994;26.260;2023-04-24T13:37:56;4.70;;;2.03;;
45208;SDS011;30951;43.994;26.260;2023-04-24T13:40:22;5.43;;;2.08;;
45208;SDS011;30951;43.994;26.260;2023-04-24T13:42:47;5.72;;;2.00;;
45208;SDS011;30951;43.994;26.260;2023-04-24T13:45:13;8.13;;;2.72;;
45208;SDS011;30951;43.994;26.260;2023-04-24T13:47:39;10.85;;;2.20;;
45208;SDS011;30951;43.994;26.260;2023-04-24T13:50:06;6.75;;;2.45;;
45208;SDS011;30951;43.994;26.260;2023-04-24T13:52:33;3.85;;;2.05;;
45208;SDS011;30951;43.994;26.260;2023-04-24T13:54:59;5.35;;;2.38;;
45208;SDS011;30951;43.994;26.260;2023-04-24T13:57:24;8.60;;;2.20;;
45208;SDS011;30951;43.994;26.260;2023-04-24T13:59:50;8.85;;;2.33;;
45208;SDS011;30951;43.994;26.260;2023-04-24T14:02:15;4.97;;;1.95;;
45208;SDS011;30951;43.994;26.260;2023-04-24T14:04:41;6.25;;;2.10;;
45208;SDS011;30951;43.994;26.260;2023-04-24T14:07:06;3.47;;;1.95;;
45208;SDS011;30951;43.994;26.260;2023-04-24T14:09:33;2.95;;;2.00;;
45208;SDS011;30951;43.994;26.260;2023-04-24T14:11:58;3.25;;;2.20;;
45208;SDS011;30951;43.994;26.260;2023-04-24T14:14:26;4.35;;;2.53;;
45208;SDS011;30951;43.994;26.260;2023-04-24T14:16:51;1.95;;;1.75;;
45208;SDS011;30951;43.994;26.260;2023-04-24T14:19:17;6.47;;;2.15;;
45208;SDS011;30951;43.994;26.260;2023-04-24T14:21:42;15.55;;;2.60;;
45208;SDS011;30951;43.994;26.260;2023-04-24T14:24:08;24.75;;;2.63;;
45208;SDS011;30951;43.994;26.260;2023-04-24T14:26:34;9.77;;;2.55;;
45208;SDS011;30951;43.994;26.260;2023-04-24T14:28:59;5.45;;;2.70;;
45208;SDS011;30951;43.994;26.260;2023-04-24T14:31:25;4.85;;;2.20;;
45208;SDS011;30951;43.994;26.260;2023-04-24T14:33:51;4.90;;;2.30;;
45208;SDS011;30951;43.994;26.260;2023-04-24T14:36:16;4.05;;;2.25;;
45208;SDS011;30951;43.994;26.260;2023-04-24T14:38:42;6.68;;;2.10;;
45208;SDS011;30951;43.994;26.260;2023-04-24T14:41:07;15.43;;;2.67;;